sensor_id;sensor_type;location;lat;lon;timestamp;temperature;humidity
52555;DHT22;38455;52.710;6.502;2022-07-23T00:00:10;15.50;99.90
52555;DHT22;38455;52.710;6.502;2022-07-23T00:02:35;15.50;99.90
52555;DHT22;38455;52.710;6.502;2022-07-23T00:05:02;15.40;99.90
52555;DHT22;38455;52.710;6.502;2022-07-23T00:07:28;15.30;99.90
52555;DHT22;38455;52.710;6.502;2022-07-23T00:09:54;15.30;99.90
52555;DHT22;38455;52.710;6.502;2022-07-23T00:12:20;15.20;99.90
52555;DHT22;38455;52.710;6.502;2022-07-23T00:14:46;15.10;99.90
52555;DHT22;38455;52.710;6.502;2022-07-23T00:17:11;15.10;99.90
52555;DHT22;38455;52.710;6.502;2022-07-23T00:19:37;15.10;99.90
52555;DHT22;38455;52.710;6.502;2022-07-23T00:22:03;15.00;99.90
52555;DHT22;38455;52.710;6.502;2022-07-23T00:24:28;15.00;99.90
52555;DHT22;38455;52.710;6.502;2022-07-23T00:26:54;14.90;99.90
52555;DHT22;38455;52.710;6.502;2022-07-23T00:29:20;14.90;99.90
52555;DHT22;38455;52.710;6.502;2022-07-23T00:31:45;14.80;99.90
52555;DHT22;38455;52.710;6.502;2022-07-23T00:34:11;14.90;99.90
52555;DHT22;38455;52.710;6.502;2022-07-23T00:36:36;14.80;99.90
52555;DHT22;38455;52.710;6.502;2022-07-23T00:39:02;14.80;99.90
52555;DHT22;38455;52.710;6.502;2022-07-23T00:41:28;14.80;99.90
52555;DHT22;38455;52.710;6.502;2022-07-23T00:43:53;14.80;99.90
52555;DHT22;38455;52.710;6.502;2022-07-23T00:46:20;14.80;99.90
52555;DHT22;38455;52.710;6.502;2022-07-23T00:48:46;14.80;99.90
52555;DHT22;38455;52.710;6.502;2022-07-23T00:51:12;14.80;99.90
52555;DHT22;38455;52.710;6.502;2022-07-23T00:53:38;14.80;99.90
52555;DHT22;38455;52.710;6.502;2022-07-23T00:56:04;14.70;99.90
52555;DHT22;38455;52.710;6.502;2022-07-23T00:58:30;14.70;99.90
52555;DHT22;38455;52.710;6.502;2022-07-23T01:00:56;14.70;99.90
52555;DHT22;38455;52.710;6.502;2022-07-23T01:03:22;14.60;99.90
52555;DHT22;38455;52.710;6.502;2022-07-23T01:05:48;14.60;99.90
52555;DHT22;38455;52.710;6.502;2022-07-23T01:08:14;14.50;99.90
52555;DHT22;38455;52.710;6.502;2022-07-23T01:10:40;14.40;99.90
52555;DHT22;38455;52.710;6.502;2022-07-23T01:13:09;14.40;99.90
52555;DHT22;38455;52.710;6.502;2022-07-23T01:15:36;14.30;99.90
52555;DHT22;38455;52.710;6.502;2022-07-23T01:18:03;14.30;99.90
52555;DHT22;38455;52.710;6.502;2022-07-23T01:20:30;14.20;99.90
52555;DHT22;38455;52.710;6.502;2022-07-23T01:22:56;14.20;99.90
52555;DHT22;38455;52.710;6.502;2022-07-23T01:25:22;14.10;99.90
52555;DHT22;38455;52.710;6.502;2022-07-23T01:27:48;14.10;99.90
52555;DHT22;38455;52.710;6.502;2022-07-23T01:30:15;14.10;99.90
52555;DHT22;38455;52.710;6.502;2022-07-23T01:32:41;14.10;99.90
52555;DHT22;38455;52.710;6.502;2022-07-23T01:35:07;14.00;99.90
52555;DHT22;38455;52.710;6.502;2022-07-23T01:37:33;14.00;99.90
52555;DHT22;38455;52.710;6.502;2022-07-23T01:39:59;13.90;99.90
52555;DHT22;38455;52.710;6.502;2022-07-23T01:42:25;13.90;99.90
52555;DHT22;38455;52.710;6.502;2022-07-23T01:44:51;13.90;99.90
52555;DHT22;38455;52.710;6.502;2022-07-23T01:47:17;13.90;99.90
52555;DHT22;38455;52.710;6.502;2022-07-23T01:49:43;13.90;99.90
52555;DHT22;38455;52.710;6.502;2022-07-23T01:52:09;13.80;99.90
52555;DHT22;38455;52.710;6.502;2022-07-23T01:54:38;13.80;99.90
52555;DHT22;38455;52.710;6.502;2022-07-23T01:57:05;13.70;99.90
52555;DHT22;38455;52.710;6.502;2022-07-23T01:59:31;13.50;99.90
52555;DHT22;38455;52.710;6.502;2022-07-23T02:01:56;13.40;99.90
52555;DHT22;38455;52.710;6.502;2022-07-23T02:04:23;13.40;99.90
52555;DHT22;38455;52.710;6.502;2022-07-23T02:06:49;13.40;99.90
52555;DHT22;38455;52.710;6.502;2022-07-23T02:09:15;13.40;99.90
52555;DHT22;38455;52.710;6.502;2022-07-23T02:11:42;13.30;99.90
52555;DHT22;38455;52.710;6.502;2022-07-23T02:14:08;13.30;99.90
52555;DHT22;38455;52.710;6.502;2022-07-23T02:16:33;13.30;99.90
52555;DHT22;38455;52.710;6.502;2022-07-23T02:18:59;13.30;99.90
52555;DHT22;38455;52.710;6.502;2022-07-23T02:21:25;13.30;99.90
52555;DHT22;38455;52.710;6.502;2022-07-23T02:23:51;13.30;99.90
52555;DHT22;38455;52.710;6.502;2022-07-23T02:26:17;13.30;99.90
52555;DHT22;38455;52.710;6.502;2022-07-23T02:28:42;13.30;99.90
52555;DHT22;38455;52.710;6.502;2022-07-23T02:31:08;13.30;99.90
52555;DHT22;38455;52.710;6.502;2022-07-23T02:33:34;13.20;99.90
52555;DHT22;38455;52.710;6.502;2022-07-23T02:35:59;13.10;99.90
52555;DHT22;38455;52.710;6.502;2022-07-23T02:38:25;13.20;99.90
52555;DHT22;38455;52.710;6.502;2022-07-23T02:40:51;13.10;99.90
52555;DHT22;38455;52.710;6.502;2022-07-23T02:43:17;13.10;99.90
52555;DHT22;38455;52.710;6.502;2022-07-23T02:45:42;13.00;99.90
52555;DHT22;38455;52.710;6.502;2022-07-23T02:48:08;13.00;99.90
52555;DHT22;38455;52.710;6.502;2022-07-23T02:50:34;13.00;99.90
52555;DHT22;38455;52.710;6.502;2022-07-23T02:53:00;13.00;99.90
52555;DHT22;38455;52.710;6.502;2022-07-23T02:55:25;12.90;99.90
52555;DHT22;38455;52.710;6.502;2022-07-23T02:57:51;12.90;99.90
52555;DHT22;38455;52.710;6.502;2022-07-23T03:00:17;12.90;99.90
52555;DHT22;38455;52.710;6.502;2022-07-23T03:02:43;12.80;99.90
52555;DHT22;38455;52.710;6.502;2022-07-23T03:05:09;12.80;99.90
52555;DHT22;38455;52.710;6.502;2022-07-23T03:07:34;12.80;99.90
52555;DHT22;38455;52.710;6.502;2022-07-23T03:10:00;12.70;99.90
52555;DHT22;38455;52.710;6.502;2022-07-23T03:12:26;12.80;99.90
52555;DHT22;38455;52.710;6.502;2022-07-23T03:14:51;12.70;99.90
52555;DHT22;38455;52.710;6.502;2022-07-23T03:17:17;12.60;99.90
52555;DHT22;38455;52.710;6.502;2022-07-23T03:19:43;12.70;99.90
52555;DHT22;38455;52.710;6.502;2022-07-23T03:22:08;12.70;99.90
52555;DHT22;38455;52.710;6.502;2022-07-23T03:24:34;12.60;99.90
52555;DHT22;38455;52.710;6.502;2022-07-23T03:27:18;12.60;99.90
52555;DHT22;38455;52.710;6.502;2022-07-23T03:29:44;12.60;99.90
52555;DHT22;38455;52.710;6.502;2022-07-23T03:32:10;12.60;99.90
52555;DHT22;38455;52.710;6.502;2022-07-23T03:34:36;12.60;99.90
52555;DHT22;38455;52.710;6.502;2022-07-23T03:37:01;12.60;99.90
52555;DHT22;38455;52.710;6.502;2022-07-23T03:39:27;12.60;99.90
52555;DHT22;38455;52.710;6.502;2022-07-23T03:41:53;12.60;99.90
52555;DHT22;38455;52.710;6.502;2022-07-23T03:44:18;12.60;99.90
52555;DHT22;38455;52.710;6.502;2022-07-23T03:46:44;12.50;99.90
52555;DHT22;38455;52.710;6.502;2022-07-23T03:49:10;12.50;99.90
52555;DHT22;38455;52.710;6.502;2022-07-23T03:51:35;12.40;99.90
52555;DHT22;38455;52.710;6.502;2022-07-23T03:54:01;12.40;99.90
52555;DHT22;38455;52.710;6.502;2022-07-23T03:56:26;12.40;99.90
52555;DHT22;38455;52.710;6.502;2022-07-23T03:58:52;12.40;99.90
52555;DHT22;38455;52.710;6.502;2022-07-23T04:01:18;12.40;99.90
52555;DHT22;38455;52.710;6.502;2022-07-23T04:03:43;12.40;99.90
52555;DHT22;38455;52.710;6.502;2022-07-23T04:06:09;12.40;99.90
52555;DHT22;38455;52.710;6.502;2022-07-23T04:08:34;12.40;99.90
52555;DHT22;38455;52.710;6.502;2022-07-23T04:11:00;12.40;99.90
52555;DHT22;38455;52.710;6.502;2022-07-23T04:13:26;12.40;99.90
52555;DHT22;38455;52.710;6.502;2022-07-23T04:15:51;12.40;99.90
52555;DHT22;38455;52.710;6.502;2022-07-23T04:18:17;12.40;99.90
52555;DHT22;38455;52.710;6.502;2022-07-23T04:20:44;12.40;99.90
52555;DHT22;38455;52.710;6.502;2022-07-23T04:23:09;12.40;99.90
52555;DHT22;38455;52.710;6.502;2022-07-23T04:25:35;12.40;99.90
52555;DHT22;38455;52.710;6.502;2022-07-23T04:28:01;12.40;99.90
52555;DHT22;38455;52.710;6.502;2022-07-23T04:30:27;12.30;99.90
52555;DHT22;38455;52.710;6.502;2022-07-23T04:32:52;12.40;99.90
52555;DHT22;38455;52.710;6.502;2022-07-23T04:35:19;12.40;99.90
52555;DHT22;38455;52.710;6.502;2022-07-23T04:37:44;12.50;99.90
52555;DHT22;38455;52.710;6.502;2022-07-23T04:40:11;12.60;99.90
52555;DHT22;38455;52.710;6.502;2022-07-23T04:42:37;12.60;99.90
52555;DHT22;38455;52.710;6.502;2022-07-23T04:45:03;12.70;99.90
52555;DHT22;38455;52.710;6.502;2022-07-23T04:47:29;12.80;99.90
52555;DHT22;38455;52.710;6.502;2022-07-23T04:49:56;12.90;99.90
52555;DHT22;38455;52.710;6.502;2022-07-23T04:52:21;13.60;99.90
52555;DHT22;38455;52.710;6.502;2022-07-23T04:54:47;14.30;99.90
52555;DHT22;38455;52.710;6.502;2022-07-23T04:57:13;14.90;99.90
52555;DHT22;38455;52.710;6.502;2022-07-23T04:59:39;15.50;99.90
52555;DHT22;38455;52.710;6.502;2022-07-23T05:02:04;15.90;99.90
52555;DHT22;38455;52.710;6.502;2022-07-23T05:04:30;16.40;99.90
52555;DHT22;38455;52.710;6.502;2022-07-23T05:06:57;16.70;99.90
52555;DHT22;38455;52.710;6.502;2022-07-23T05:09:22;17.00;99.90
52555;DHT22;38455;52.710;6.502;2022-07-23T05:11:48;17.40;99.90
52555;DHT22;38455;52.710;6.502;2022-07-23T05:14:14;17.60;99.90
52555;DHT22;38455;52.710;6.502;2022-07-23T05:16:39;17.80;99.90
52555;DHT22;38455;52.710;6.502;2022-07-23T05:19:05;18.10;99.90
52555;DHT22;38455;52.710;6.502;2022-07-23T05:21:31;18.20;99.90
52555;DHT22;38455;52.710;6.502;2022-07-23T05:23:57;18.50;99.90
52555;DHT22;38455;52.710;6.502;2022-07-23T05:26:22;18.70;99.90
52555;DHT22;38455;52.710;6.502;2022-07-23T05:28:48;19.00;99.90
52555;DHT22;38455;52.710;6.502;2022-07-23T05:31:14;19.20;99.90
52555;DHT22;38455;52.710;6.502;2022-07-23T05:33:39;19.50;99.90
52555;DHT22;38455;52.710;6.502;2022-07-23T05:36:05;19.90;99.90
52555;DHT22;38455;52.710;6.502;2022-07-23T05:38:31;20.20;99.90
52555;DHT22;38455;52.710;6.502;2022-07-23T05:40:57;20.50;99.90
52555;DHT22;38455;52.710;6.502;2022-07-23T05:43:23;20.60;99.90
52555;DHT22;38455;52.710;6.502;2022-07-23T05:45:49;20.80;99.90
52555;DHT22;38455;52.710;6.502;2022-07-23T05:48:14;21.00;99.90
52555;DHT22;38455;52.710;6.502;2022-07-23T05:50:40;21.20;99.90
52555;DHT22;38455;52.710;6.502;2022-07-23T05:53:06;21.40;99.90
52555;DHT22;38455;52.710;6.502;2022-07-23T05:55:31;21.70;99.90
52555;DHT22;38455;52.710;6.502;2022-07-23T05:57:58;22.00;99.90
52555;DHT22;38455;52.710;6.502;2022-07-23T06:00:25;22.30;99.90
52555;DHT22;38455;52.710;6.502;2022-07-23T06:02:51;22.40;99.90
52555;DHT22;38455;52.710;6.502;2022-07-23T06:05:17;22.40;99.90
52555;DHT22;38455;52.710;6.502;2022-07-23T06:07:43;22.50;99.90
52555;DHT22;38455;52.710;6.502;2022-07-23T06:10:09;22.00;99.90
52555;DHT22;38455;52.710;6.502;2022-07-23T06:12:35;21.50;99.90
52555;DHT22;38455;52.710;6.502;2022-07-23T06:15:02;21.50;99.90
52555;DHT22;38455;52.710;6.502;2022-07-23T06:17:28;21.40;99.90
52555;DHT22;38455;52.710;6.502;2022-07-23T06:19:54;21.10;99.90
52555;DHT22;38455;52.710;6.502;2022-07-23T06:22:20;21.50;99.90
52555;DHT22;38455;52.710;6.502;2022-07-23T06:24:46;22.00;99.90
52555;DHT22;38455;52.710;6.502;2022-07-23T06:27:12;22.70;99.90
52555;DHT22;38455;52.710;6.502;2022-07-23T06:29:38;23.00;99.90
52555;DHT22;38455;52.710;6.502;2022-07-23T06:32:06;23.30;99.90
52555;DHT22;38455;52.710;6.502;2022-07-23T06:34:32;23.70;99.90
52555;DHT22;38455;52.710;6.502;2022-07-23T06:36:58;23.80;99.90
52555;DHT22;38455;52.710;6.502;2022-07-23T06:39:24;23.80;99.90
52555;DHT22;38455;52.710;6.502;2022-07-23T06:41:50;23.50;99.90
52555;DHT22;38455;52.710;6.502;2022-07-23T06:44:16;23.70;99.90
52555;DHT22;38455;52.710;6.502;2022-07-23T06:46:42;24.00;99.90
52555;DHT22;38455;52.710;6.502;2022-07-23T06:49:07;24.20;99.90
52555;DHT22;38455;52.710;6.502;2022-07-23T06:51:33;24.70;99.90
52555;DHT22;38455;52.710;6.502;2022-07-23T06:53:59;25.20;99.90
52555;DHT22;38455;52.710;6.502;2022-07-23T06:56:25;25.50;99.90
52555;DHT22;38455;52.710;6.502;2022-07-23T06:58:50;25.40;99.60
52555;DHT22;38455;52.710;6.502;2022-07-23T07:01:16;25.50;99.00
52555;DHT22;38455;52.710;6.502;2022-07-23T07:03:42;25.20;98.80
52555;DHT22;38455;52.710;6.502;2022-07-23T07:06:08;25.40;98.40
52555;DHT22;38455;52.710;6.502;2022-07-23T07:08:33;25.80;98.40
52555;DHT22;38455;52.710;6.502;2022-07-23T07:10:59;25.90;97.80
52555;DHT22;38455;52.710;6.502;2022-07-23T07:13:25;26.10;97.10
52555;DHT22;38455;52.710;6.502;2022-07-23T07:15:50;25.70;96.30
52555;DHT22;38455;52.710;6.502;2022-07-23T07:18:16;26.10;96.00
52555;DHT22;38455;52.710;6.502;2022-07-23T07:20:42;26.30;96.20
52555;DHT22;38455;52.710;6.502;2022-07-23T07:23:07;26.60;96.20
52555;DHT22;38455;52.710;6.502;2022-07-23T07:25:33;26.70;95.60
52555;DHT22;38455;52.710;6.502;2022-07-23T07:27:59;26.50;95.00
52555;DHT22;38455;52.710;6.502;2022-07-23T07:30:24;26.60;94.80
52555;DHT22;38455;52.710;6.502;2022-07-23T07:32:50;27.30;94.10
52555;DHT22;38455;52.710;6.502;2022-07-23T07:35:16;26.90;93.10
52555;DHT22;38455;52.710;6.502;2022-07-23T07:37:41;27.10;91.70
52555;DHT22;38455;52.710;6.502;2022-07-23T07:40:08;26.50;92.20
52555;DHT22;38455;52.710;6.502;2022-07-23T07:42:33;26.30;92.30
52555;DHT22;38455;52.710;6.502;2022-07-23T07:44:59;26.50;92.70
52555;DHT22;38455;52.710;6.502;2022-07-23T07:47:25;27.00;92.40
52555;DHT22;38455;52.710;6.502;2022-07-23T07:49:51;27.70;90.60
52555;DHT22;38455;52.710;6.502;2022-07-23T07:52:17;27.60;88.80
52555;DHT22;38455;52.710;6.502;2022-07-23T07:54:42;28.10;88.00
52555;DHT22;38455;52.710;6.502;2022-07-23T07:57:09;27.40;85.70
52555;DHT22;38455;52.710;6.502;2022-07-23T07:59:34;26.40;86.60
52555;DHT22;38455;52.710;6.502;2022-07-23T08:02:01;26.40;87.00
52555;DHT22;38455;52.710;6.502;2022-07-23T08:04:26;27.10;86.00
52555;DHT22;38455;52.710;6.502;2022-07-23T08:06:52;28.10;84.90
52555;DHT22;38455;52.710;6.502;2022-07-23T08:09:18;27.90;83.50
52555;DHT22;38455;52.710;6.502;2022-07-23T08:11:43;27.60;83.10
52555;DHT22;38455;52.710;6.502;2022-07-23T08:14:09;26.50;84.60
52555;DHT22;38455;52.710;6.502;2022-07-23T08:16:36;26.60;84.50
52555;DHT22;38455;52.710;6.502;2022-07-23T08:19:02;26.60;86.80
52555;DHT22;38455;52.710;6.502;2022-07-23T08:21:28;26.90;86.70
52555;DHT22;38455;52.710;6.502;2022-07-23T08:23:53;27.20;86.10
52555;DHT22;38455;52.710;6.502;2022-07-23T08:26:19;27.30;83.30
52555;DHT22;38455;52.710;6.502;2022-07-23T08:28:44;28.30;82.20
52555;DHT22;38455;52.710;6.502;2022-07-23T08:31:11;27.50;79.70
52555;DHT22;38455;52.710;6.502;2022-07-23T08:33:37;27.60;78.30
52555;DHT22;38455;52.710;6.502;2022-07-23T08:36:03;28.10;78.80
52555;DHT22;38455;52.710;6.502;2022-07-23T08:38:29;28.30;76.50
52555;DHT22;38455;52.710;6.502;2022-07-23T08:40:56;27.70;76.50
52555;DHT22;38455;52.710;6.502;2022-07-23T08:43:27;26.80;76.30
52555;DHT22;38455;52.710;6.502;2022-07-23T08:45:54;26.20;78.00
52555;DHT22;38455;52.710;6.502;2022-07-23T08:48:25;25.90;79.00
52555;DHT22;38455;52.710;6.502;2022-07-23T08:50:53;25.60;80.50
52555;DHT22;38455;52.710;6.502;2022-07-23T08:53:21;25.50;81.00
52555;DHT22;38455;52.710;6.502;2022-07-23T08:55:48;24.90;82.00
52555;DHT22;38455;52.710;6.502;2022-07-23T08:58:15;24.70;82.70
52555;DHT22;38455;52.710;6.502;2022-07-23T09:00:41;25.60;84.50
52555;DHT22;38455;52.710;6.502;2022-07-23T09:03:07;25.60;85.10
52555;DHT22;38455;52.710;6.502;2022-07-23T09:05:33;25.30;85.20
52555;DHT22;38455;52.710;6.502;2022-07-23T09:10:30;24.90;86.40
52555;DHT22;38455;52.710;6.502;2022-07-23T09:13:00;25.00;87.60
52555;DHT22;38455;52.710;6.502;2022-07-23T09:15:25;25.00;86.40
52555;DHT22;38455;52.710;6.502;2022-07-23T09:17:51;25.40;87.50
52555;DHT22;38455;52.710;6.502;2022-07-23T09:20:17;25.70;85.80
52555;DHT22;38455;52.710;6.502;2022-07-23T09:22:47;25.70;85.90
52555;DHT22;38455;52.710;6.502;2022-07-23T09:25:17;25.50;86.70
52555;DHT22;38455;52.710;6.502;2022-07-23T09:27:52;25.50;86.60
52555;DHT22;38455;52.710;6.502;2022-07-23T09:30:25;25.50;86.30
52555;DHT22;38455;52.710;6.502;2022-07-23T09:33:06;25.40;87.20
52555;DHT22;38455;52.710;6.502;2022-07-23T09:35:52;25.00;86.50
52555;DHT22;38455;52.710;6.502;2022-07-23T09:38:20;24.60;89.40
52555;DHT22;38455;52.710;6.502;2022-07-23T09:40:47;25.20;89.40
52555;DHT22;38455;52.710;6.502;2022-07-23T09:43:29;26.30;86.90
52555;DHT22;38455;52.710;6.502;2022-07-23T09:46:25;27.30;85.60
52555;DHT22;38455;52.710;6.502;2022-07-23T09:48:54;27.60;79.00
52555;DHT22;38455;52.710;6.502;2022-07-23T09:51:22;28.10;81.70
52555;DHT22;38455;52.710;6.502;2022-07-23T09:53:54;28.90;75.90
52555;DHT22;38455;52.710;6.502;2022-07-23T09:56:20;28.90;76.40
52555;DHT22;38455;52.710;6.502;2022-07-23T09:58:50;28.80;76.50
52555;DHT22;38455;52.710;6.502;2022-07-23T10:01:17;28.30;72.70
52555;DHT22;38455;52.710;6.502;2022-07-23T10:03:53;28.50;74.40
52555;DHT22;38455;52.710;6.502;2022-07-23T10:06:19;29.30;74.40
52555;DHT22;38455;52.710;6.502;2022-07-23T10:08:46;30.40;71.50
52555;DHT22;38455;52.710;6.502;2022-07-23T10:11:13;30.80;69.00
52555;DHT22;38455;52.710;6.502;2022-07-23T10:13:40;31.10;69.30
52555;DHT22;38455;52.710;6.502;2022-07-23T10:16:20;31.00;66.70
52555;DHT22;38455;52.710;6.502;2022-07-23T10:18:47;30.60;68.60
52555;DHT22;38455;52.710;6.502;2022-07-23T10:21:18;30.80;68.50
52555;DHT22;38455;52.710;6.502;2022-07-23T10:23:58;31.50;66.50
52555;DHT22;38455;52.710;6.502;2022-07-23T10:26:47;30.20;63.20
52555;DHT22;38455;52.710;6.502;2022-07-23T10:29:43;30.30;64.10
52555;DHT22;38455;52.710;6.502;2022-07-23T10:32:24;29.70;63.80
52555;DHT22;38455;52.710;6.502;2022-07-23T10:37:39;30.00;67.40
52555;DHT22;38455;52.710;6.502;2022-07-23T10:40:22;29.20;65.40
52555;DHT22;38455;52.710;6.502;2022-07-23T10:42:53;29.30;67.20
52555;DHT22;38455;52.710;6.502;2022-07-23T10:45:36;30.20;67.30
52555;DHT22;38455;52.710;6.502;2022-07-23T10:50:41;30.40;64.60
52555;DHT22;38455;52.710;6.502;2022-07-23T10:53:13;30.20;65.10
52555;DHT22;38455;52.710;6.502;2022-07-23T10:55:48;30.80;64.00
52555;DHT22;38455;52.710;6.502;2022-07-23T10:58:21;30.40;65.30
52555;DHT22;38455;52.710;6.502;2022-07-23T11:00:46;29.10;66.20
52555;DHT22;38455;52.710;6.502;2022-07-23T11:03:33;29.50;67.10
52555;DHT22;38455;52.710;6.502;2022-07-23T11:06:02;29.00;65.60
52555;DHT22;38455;52.710;6.502;2022-07-23T11:08:28;29.00;67.60
52555;DHT22;38455;52.710;6.502;2022-07-23T11:13:30;28.00;67.00
52555;DHT22;38455;52.710;6.502;2022-07-23T11:32:08;28.30;68.30
52555;DHT22;38455;52.710;6.502;2022-07-23T11:34:34;28.50;67.40
52555;DHT22;38455;52.710;6.502;2022-07-23T11:37:02;28.80;69.90
52555;DHT22;38455;52.710;6.502;2022-07-23T11:39:29;29.20;67.40
52555;DHT22;38455;52.710;6.502;2022-07-23T11:41:56;29.70;67.60
52555;DHT22;38455;52.710;6.502;2022-07-23T11:44:26;29.60;66.80
52555;DHT22;38455;52.710;6.502;2022-07-23T11:47:00;29.60;67.10
52555;DHT22;38455;52.710;6.502;2022-07-23T11:49:26;30.30;68.00
52555;DHT22;38455;52.710;6.502;2022-07-23T11:52:06;30.20;68.00
52555;DHT22;38455;52.710;6.502;2022-07-23T11:54:33;31.00;65.00
52555;DHT22;38455;52.710;6.502;2022-07-23T11:57:00;30.80;64.90
52555;DHT22;38455;52.710;6.502;2022-07-23T11:59:31;30.60;65.30
52555;DHT22;38455;52.710;6.502;2022-07-23T12:02:03;30.20;65.20
52555;DHT22;38455;52.710;6.502;2022-07-23T12:04:51;29.60;66.30
52555;DHT22;38455;52.710;6.502;2022-07-23T12:09:59;28.70;67.50
52555;DHT22;38455;52.710;6.502;2022-07-23T12:12:25;29.20;68.10
52555;DHT22;38455;52.710;6.502;2022-07-23T12:14:56;28.60;66.70
52555;DHT22;38455;52.710;6.502;2022-07-23T12:17:31;28.70;67.50
52555;DHT22;38455;52.710;6.502;2022-07-23T12:19:58;29.00;69.00
52555;DHT22;38455;52.710;6.502;2022-07-23T12:22:26;28.70;70.20
52555;DHT22;38455;52.710;6.502;2022-07-23T12:25:01;28.40;67.90
52555;DHT22;38455;52.710;6.502;2022-07-23T12:27:28;28.90;71.10
52555;DHT22;38455;52.710;6.502;2022-07-23T12:29:53;29.40;70.10
52555;DHT22;38455;52.710;6.502;2022-07-23T12:32:24;29.70;69.00
52555;DHT22;38455;52.710;6.502;2022-07-23T12:35:06;30.10;66.10
52555;DHT22;38455;52.710;6.502;2022-07-23T12:37:34;30.50;68.10
52555;DHT22;38455;52.710;6.502;2022-07-23T12:42:55;30.80;65.80
52555;DHT22;38455;52.710;6.502;2022-07-23T12:45:21;30.50;65.10
52555;DHT22;38455;52.710;6.502;2022-07-23T12:53:20;29.80;67.10
52555;DHT22;38455;52.710;6.502;2022-07-23T12:55:47;30.10;66.40
52555;DHT22;38455;52.710;6.502;2022-07-23T12:58:16;30.40;65.70
52555;DHT22;38455;52.710;6.502;2022-07-23T13:01:03;30.70;66.20
52555;DHT22;38455;52.710;6.502;2022-07-23T13:03:39;30.90;66.80
52555;DHT22;38455;52.710;6.502;2022-07-23T13:06:07;30.30;66.60
52555;DHT22;38455;52.710;6.502;2022-07-23T13:08:34;30.30;65.90
52555;DHT22;38455;52.710;6.502;2022-07-23T13:11:00;30.00;66.00
52555;DHT22;38455;52.710;6.502;2022-07-23T13:13:29;30.20;65.80
52555;DHT22;38455;52.710;6.502;2022-07-23T13:15:56;30.60;65.00
52555;DHT22;38455;52.710;6.502;2022-07-23T13:18:22;31.20;63.90
52555;DHT22;38455;52.710;6.502;2022-07-23T13:20:49;31.20;64.70
52555;DHT22;38455;52.710;6.502;2022-07-23T13:23:15;30.80;65.20
52555;DHT22;38455;52.710;6.502;2022-07-23T13:25:41;30.80;64.80
52555;DHT22;38455;52.710;6.502;2022-07-23T13:28:07;30.30;64.00
52555;DHT22;38455;52.710;6.502;2022-07-23T13:30:33;30.20;64.70
52555;DHT22;38455;52.710;6.502;2022-07-23T13:33:01;29.90;65.70
52555;DHT22;38455;52.710;6.502;2022-07-23T13:35:26;29.60;66.40
52555;DHT22;38455;52.710;6.502;2022-07-23T13:37:52;29.70;68.60
52555;DHT22;38455;52.710;6.502;2022-07-23T13:40:18;29.70;67.40
52555;DHT22;38455;52.710;6.502;2022-07-23T13:42:43;29.10;67.10
52555;DHT22;38455;52.710;6.502;2022-07-23T13:45:09;28.80;67.10
52555;DHT22;38455;52.710;6.502;2022-07-23T13:47:35;28.60;69.00
52555;DHT22;38455;52.710;6.502;2022-07-23T13:50:01;28.40;69.30
52555;DHT22;38455;52.710;6.502;2022-07-23T13:52:26;28.50;69.60
52555;DHT22;38455;52.710;6.502;2022-07-23T13:54:52;28.40;69.90
52555;DHT22;38455;52.710;6.502;2022-07-23T13:57:17;28.30;70.00
52555;DHT22;38455;52.710;6.502;2022-07-23T13:59:43;28.50;70.40
52555;DHT22;38455;52.710;6.502;2022-07-23T14:02:09;28.40;71.40
52555;DHT22;38455;52.710;6.502;2022-07-23T14:04:35;28.60;71.00
52555;DHT22;38455;52.710;6.502;2022-07-23T14:07:01;28.60;69.90
52555;DHT22;38455;52.710;6.502;2022-07-23T14:09:26;28.40;67.90
52555;DHT22;38455;52.710;6.502;2022-07-23T14:11:53;28.20;68.40
52555;DHT22;38455;52.710;6.502;2022-07-23T14:14:18;28.00;70.00
52555;DHT22;38455;52.710;6.502;2022-07-23T14:16:44;28.00;70.40
52555;DHT22;38455;52.710;6.502;2022-07-23T14:19:10;27.60;69.00
52555;DHT22;38455;52.710;6.502;2022-07-23T14:21:37;27.70;69.40
52555;DHT22;38455;52.710;6.502;2022-07-23T14:24:03;27.90;69.90
52555;DHT22;38455;52.710;6.502;2022-07-23T14:26:29;28.00;70.60
52555;DHT22;38455;52.710;6.502;2022-07-23T14:28:55;28.30;70.20
52555;DHT22;38455;52.710;6.502;2022-07-23T14:31:21;28.20;69.40
52555;DHT22;38455;52.710;6.502;2022-07-23T14:33:47;28.30;70.30
52555;DHT22;38455;52.710;6.502;2022-07-23T14:36:13;28.20;70.20
52555;DHT22;38455;52.710;6.502;2022-07-23T14:38:38;28.00;71.50
52555;DHT22;38455;52.710;6.502;2022-07-23T14:41:04;27.80;70.60
52555;DHT22;38455;52.710;6.502;2022-07-23T14:43:32;27.50;69.20
52555;DHT22;38455;52.710;6.502;2022-07-23T14:45:58;27.50;71.40
52555;DHT22;38455;52.710;6.502;2022-07-23T14:48:24;27.50;71.60
52555;DHT22;38455;52.710;6.502;2022-07-23T14:50:50;27.70;71.00
52555;DHT22;38455;52.710;6.502;2022-07-23T14:53:16;27.60;70.10
52555;DHT22;38455;52.710;6.502;2022-07-23T14:55:41;27.60;70.40
52555;DHT22;38455;52.710;6.502;2022-07-23T14:58:07;27.30;71.40
52555;DHT22;38455;52.710;6.502;2022-07-23T15:00:33;27.20;71.00
52555;DHT22;38455;52.710;6.502;2022-07-23T15:02:58;27.30;73.50
52555;DHT22;38455;52.710;6.502;2022-07-23T15:05:24;27.20;72.60
52555;DHT22;38455;52.710;6.502;2022-07-23T15:07:50;27.00;71.60
52555;DHT22;38455;52.710;6.502;2022-07-23T15:10:15;27.00;72.20
52555;DHT22;38455;52.710;6.502;2022-07-23T15:12:41;27.00;73.00
52555;DHT22;38455;52.710;6.502;2022-07-23T15:15:07;26.80;73.90
52555;DHT22;38455;52.710;6.502;2022-07-23T15:17:33;26.40;73.00
52555;DHT22;38455;52.710;6.502;2022-07-23T15:19:59;26.30;74.10
52555;DHT22;38455;52.710;6.502;2022-07-23T15:22:25;26.30;74.70
52555;DHT22;38455;52.710;6.502;2022-07-23T15:24:50;26.30;73.50
52555;DHT22;38455;52.710;6.502;2022-07-23T15:27:16;26.20;73.90
52555;DHT22;38455;52.710;6.502;2022-07-23T15:29:44;26.30;74.00
52555;DHT22;38455;52.710;6.502;2022-07-23T15:32:10;26.40;74.00
52555;DHT22;38455;52.710;6.502;2022-07-23T15:34:37;26.40;75.90
52555;DHT22;38455;52.710;6.502;2022-07-23T15:37:03;26.20;75.20
52555;DHT22;38455;52.710;6.502;2022-07-23T15:39:33;26.20;75.10
52555;DHT22;38455;52.710;6.502;2022-07-23T15:42:02;26.10;76.00
52555;DHT22;38455;52.710;6.502;2022-07-23T15:44:28;26.00;76.90
52555;DHT22;38455;52.710;6.502;2022-07-23T15:46:56;26.00;76.40
52555;DHT22;38455;52.710;6.502;2022-07-23T15:49:22;26.00;77.50
52555;DHT22;38455;52.710;6.502;2022-07-23T15:51:47;25.80;77.60
52555;DHT22;38455;52.710;6.502;2022-07-23T15:54:13;25.70;77.40
52555;DHT22;38455;52.710;6.502;2022-07-23T15:56:39;25.60;77.60
52555;DHT22;38455;52.710;6.502;2022-07-23T15:59:04;25.50;78.20
52555;DHT22;38455;52.710;6.502;2022-07-23T16:01:30;25.40;78.50
52555;DHT22;38455;52.710;6.502;2022-07-23T16:03:56;25.30;77.90
52555;DHT22;38455;52.710;6.502;2022-07-23T16:06:24;25.30;79.60